sensor_id;sensor_type;location;lat;lon;timestamp;P1;durP1;ratioP1;P2;durP2;ratioP2
19566;SDS011;9930;49.240;8.548;2023-04-03T00:00:57;1.55;;;1.45;;
19566;SDS011;9930;49.240;8.548;2023-04-03T00:03:23;2.28;;;1.73;;
19566;SDS011;9930;49.240;8.548;2023-04-03T00:05:51;2.05;;;1.70;;
19566;SDS011;9930;49.240;8.548;2023-04-03T00:08:16;1.75;;;1.50;;
19566;SDS011;9930;49.240;8.548;2023-04-03T00:10:45;1.95;;;1.83;;
19566;SDS011;9930;49.240;8.548;2023-04-03T00:13:13;2.35;;;1.70;;
19566;SDS011;9930;49.240;8.548;2023-04-03T00:15:42;1.98;;;1.70;;
19566;SDS011;9930;49.240;8.548;2023-04-03T00:18:10;2.05;;;1.90;;
19566;SDS011;9930;49.240;8.548;2023-04-03T00:20:39;2.38;;;2.17;;
19566;SDS011;9930;49.240;8.548;2023-04-03T00:23:05;2.80;;;1.67;;
19566;SDS011;9930;49.240;8.548;2023-04-03T00:25:30;1.55;;;1.45;;
19566;SDS011;9930;49.240;8.548;2023-04-03T00:27:57;1.77;;;1.33;;
19566;SDS011;9930;49.240;8.548;2023-04-03T00:30:23;2.17;;;1.60;;
19566;SDS011;9930;49.240;8.548;2023-04-03T00:32:54;2.40;;;1.55;;
19566;SDS011;9930;49.240;8.548;2023-04-03T00:35:20;2.17;;;1.70;;
19566;SDS011;9930;49.240;8.548;2023-04-03T00:37:47;2.53;;;1.77;;
19566;SDS011;9930;49.240;8.548;2023-04-03T00:40:19;1.85;;;1.70;;
19566;SDS011;9930;49.240;8.548;2023-04-03T00:42:46;2.75;;;1.52;;
19566;SDS011;9930;49.240;8.548;2023-04-03T00:45:25;2.28;;;2.00;;
19566;SDS011;9930;49.240;8.548;2023-04-03T00:48:23;1.85;;;1.60;;
19566;SDS011;9930;49.240;8.548;2023-04-03T00:51:01;2.08;;;1.60;;
19566;SDS011;9930;49.240;8.548;2023-04-03T00:53:32;2.00;;;1.33;;
19566;SDS011;9930;49.240;8.548;2023-04-03T00:56:06;1.42;;;1.33;;
19566;SDS011;9930;49.240;8.548;2023-04-03T00:58:39;1.57;;;1.40;;
19566;SDS011;9930;49.240;8.548;2023-04-03T01:01:14;2.45;;;1.48;;
19566;SDS011;9930;49.240;8.548;2023-04-03T01:03:47;1.50;;;1.40;;
19566;SDS011;9930;49.240;8.548;2023-04-03T01:06:13;1.70;;;1.60;;
19566;SDS011;9930;49.240;8.548;2023-04-03T01:08:44;1.58;;;1.48;;
19566;SDS011;9930;49.240;8.548;2023-04-03T01:11:13;1.77;;;1.50;;
19566;SDS011;9930;49.240;8.548;2023-04-03T01:13:39;1.40;;;1.30;;
19566;SDS011;9930;49.240;8.548;2023-04-03T01:16:06;2.47;;;1.30;;
19566;SDS011;9930;49.240;8.548;2023-04-03T01:18:36;1.93;;;1.70;;
19566;SDS011;9930;49.240;8.548;2023-04-03T01:26:39;1.88;;;1.58;;
19566;SDS011;9930;49.240;8.548;2023-04-03T01:29:05;1.63;;;1.52;;
19566;SDS011;9930;49.240;8.548;2023-04-03T01:31:42;1.92;;;1.50;;
19566;SDS011;9930;49.240;8.548;2023-04-03T01:34:15;1.67;;;1.50;;
19566;SDS011;9930;49.240;8.548;2023-04-03T01:36:44;1.90;;;1.60;;
19566;SDS011;9930;49.240;8.548;2023-04-03T01:39:10;2.07;;;1.70;;
19566;SDS011;9930;49.240;8.548;2023-04-03T01:41:38;1.55;;;1.35;;
19566;SDS011;9930;49.240;8.548;2023-04-03T01:44:04;2.10;;;1.30;;
19566;SDS011;9930;49.240;8.548;2023-04-03T01:46:33;1.70;;;1.60;;
19566;SDS011;9930;49.240;8.548;2023-04-03T01:49:07;1.42;;;1.30;;
19566;SDS011;9930;49.240;8.548;2023-04-03T01:51:33;1.80;;;1.33;;
19566;SDS011;9930;49.240;8.548;2023-04-03T01:54:03;1.50;;;1.40;;
19566;SDS011;9930;49.240;8.548;2023-04-03T01:56:29;1.50;;;1.40;;
19566;SDS011;9930;49.240;8.548;2023-04-03T01:58:57;2.25;;;1.60;;
19566;SDS011;9930;49.240;8.548;2023-04-03T02:01:23;1.40;;;1.30;;
19566;SDS011;9930;49.240;8.548;2023-04-03T02:03:51;1.70;;;1.60;;
19566;SDS011;9930;49.240;8.548;2023-04-03T02:06:17;1.63;;;1.30;;
19566;SDS011;9930;49.240;8.548;2023-04-03T02:08:42;1.53;;;1.37;;
19566;SDS011;9930;49.240;8.548;2023-04-03T02:11:08;1.50;;;1.40;;
19566;SDS011;9930;49.240;8.548;2023-04-03T02:13:35;1.97;;;1.40;;
19566;SDS011;9930;49.240;8.548;2023-04-03T02:16:07;1.92;;;1.45;;
19566;SDS011;9930;49.240;8.548;2023-04-03T02:18:37;2.53;;;1.60;;
19566;SDS011;9930;49.240;8.548;2023-04-03T02:21:05;2.03;;;1.33;;
19566;SDS011;9930;49.240;8.548;2023-04-03T02:23:31;1.83;;;1.40;;
19566;SDS011;9930;49.240;8.548;2023-04-03T02:26:09;1.40;;;1.30;;
19566;SDS011;9930;49.240;8.548;2023-04-03T02:28:38;2.17;;;1.40;;
19566;SDS011;9930;49.240;8.548;2023-04-03T02:31:09;1.70;;;1.40;;
19566;SDS011;9930;49.240;8.548;2023-04-03T02:33:36;1.63;;;1.40;;
19566;SDS011;9930;49.240;8.548;2023-04-03T02:36:02;1.55;;;1.40;;
19566;SDS011;9930;49.240;8.548;2023-04-03T02:38:35;1.63;;;1.52;;
19566;SDS011;9930;49.240;8.548;2023-04-03T02:41:04;1.42;;;1.30;;
19566;SDS011;9930;49.240;8.548;2023-04-03T02:43:34;1.73;;;1.60;;
19566;SDS011;9930;49.240;8.548;2023-04-03T02:46:02;2.17;;;1.50;;
19566;SDS011;9930;49.240;8.548;2023-04-03T02:48:31;1.55;;;1.33;;
19566;SDS011;9930;49.240;8.548;2023-04-03T02:50:58;1.73;;;1.63;;
19566;SDS011;9930;49.240;8.548;2023-04-03T02:53:27;2.30;;;1.57;;
19566;SDS011;9930;49.240;8.548;2023-04-03T02:55:52;1.48;;;1.38;;
19566;SDS011;9930;49.240;8.548;2023-04-03T02:58:20;1.40;;;1.30;;
19566;SDS011;9930;49.240;8.548;2023-04-03T03:00:48;2.55;;;1.40;;
19566;SDS011;9930;49.240;8.548;2023-04-03T03:03:14;1.63;;;1.40;;
19566;SDS011;9930;49.240;8.548;2023-04-03T03:05:42;1.20;;;1.10;;
19566;SDS011;9930;49.240;8.548;2023-04-03T03:08:11;2.55;;;1.45;;
19566;SDS011;9930;49.240;8.548;2023-04-03T03:10:38;2.13;;;1.38;;
19566;SDS011;9930;49.240;8.548;2023-04-03T03:13:09;1.85;;;1.40;;
19566;SDS011;9930;49.240;8.548;2023-04-03T03:15:37;1.83;;;1.48;;
19566;SDS011;9930;49.240;8.548;2023-04-03T03:18:04;1.67;;;1.20;;
19566;SDS011;9930;49.240;8.548;2023-04-03T03:20:37;1.88;;;1.60;;
19566;SDS011;9930;49.240;8.548;2023-04-03T03:23:07;1.60;;;1.50;;
19566;SDS011;9930;49.240;8.548;2023-04-03T03:25:35;2.25;;;1.42;;
19566;SDS011;9930;49.240;8.548;2023-04-03T03:28:08;1.83;;;1.60;;
19566;SDS011;9930;49.240;8.548;2023-04-03T03:30:33;1.50;;;1.40;;
19566;SDS011;9930;49.240;8.548;2023-04-03T03:33:00;1.42;;;1.33;;
19566;SDS011;9930;49.240;8.548;2023-04-03T03:35:28;1.30;;;1.20;;
19566;SDS011;9930;49.240;8.548;2023-04-03T03:37:54;1.63;;;1.52;;
19566;SDS011;9930;49.240;8.548;2023-04-03T03:40:25;1.50;;;1.40;;
19566;SDS011;9930;49.240;8.548;2023-04-03T03:42:51;3.17;;;1.40;;
19566;SDS011;9930;49.240;8.548;2023-04-03T03:45:16;1.60;;;1.50;;
19566;SDS011;9930;49.240;8.548;2023-04-03T03:47:42;2.15;;;1.48;;
19566;SDS011;9930;49.240;8.548;2023-04-03T03:50:08;2.60;;;1.40;;
19566;SDS011;9930;49.240;8.548;2023-04-03T03:52:34;1.98;;;1.40;;
19566;SDS011;9930;49.240;8.548;2023-04-03T03:55:00;1.73;;;1.60;;
19566;SDS011;9930;49.240;8.548;2023-04-03T03:57:33;1.40;;;1.20;;
19566;SDS011;9930;49.240;8.548;2023-04-03T04:00:06;1.40;;;1.30;;
19566;SDS011;9930;49.240;8.548;2023-04-03T04:02:33;1.50;;;1.40;;
19566;SDS011;9930;49.240;8.548;2023-04-03T04:05:02;3.40;;;1.40;;
19566;SDS011;9930;49.240;8.548;2023-04-03T04:07:31;1.60;;;1.50;;
19566;SDS011;9930;49.240;8.548;2023-04-03T04:10:00;1.80;;;1.50;;
19566;SDS011;9930;49.240;8.548;2023-04-03T04:12:26;1.50;;;1.20;;
19566;SDS011;9930;49.240;8.548;2023-04-03T04:14:54;1.85;;;1.45;;
19566;SDS011;9930;49.240;8.548;2023-04-03T04:17:20;1.88;;;1.52;;
19566;SDS011;9930;49.240;8.548;2023-04-03T04:19:46;1.60;;;1.50;;
19566;SDS011;9930;49.240;8.548;2023-04-03T04:22:12;1.37;;;1.27;;
19566;SDS011;9930;49.240;8.548;2023-04-03T04:24:40;1.50;;;1.40;;
19566;SDS011;9930;49.240;8.548;2023-04-03T04:27:06;1.60;;;1.50;;
19566;SDS011;9930;49.240;8.548;2023-04-03T04:29:34;1.73;;;1.63;;
19566;SDS011;9930;49.240;8.548;2023-04-03T04:32:02;1.35;;;1.25;;
19566;SDS011;9930;49.240;8.548;2023-04-03T04:34:30;2.00;;;1.40;;
19566;SDS011;9930;49.240;8.548;2023-04-03T04:36:55;1.70;;;1.50;;
19566;SDS011;9930;49.240;8.548;2023-04-03T04:39:21;1.65;;;1.55;;
19566;SDS011;9930;49.240;8.548;2023-04-03T04:41:50;1.90;;;1.60;;
19566;SDS011;9930;49.240;8.548;2023-04-03T04:44:18;1.60;;;1.50;;
19566;SDS011;9930;49.240;8.548;2023-04-03T04:46:48;2.10;;;2.00;;
19566;SDS011;9930;49.240;8.548;2023-04-03T04:49:14;2.50;;;2.30;;
19566;SDS011;9930;49.240;8.548;2023-04-03T04:51:40;3.93;;;2.40;;
19566;SDS011;9930;49.240;8.548;2023-04-03T04:54:06;2.70;;;2.50;;
19566;SDS011;9930;49.240;8.548;2023-04-03T04:56:33;2.90;;;2.47;;
19566;SDS011;9930;49.240;8.548;2023-04-03T04:59:01;2.27;;;2.00;;
19566;SDS011;9930;49.240;8.548;2023-04-03T05:01:30;3.00;;;2.70;;
19566;SDS011;9930;49.240;8.548;2023-04-03T05:03:58;3.33;;;3.00;;
19566;SDS011;9930;49.240;8.548;2023-04-03T05:06:26;2.60;;;2.30;;
19566;SDS011;9930;49.240;8.548;2023-04-03T05:08:52;3.30;;;3.00;;
19566;SDS011;9930;49.240;8.548;2023-04-03T05:11:18;4.83;;;4.20;;
19566;SDS011;9930;49.240;8.548;2023-04-03T05:13:43;4.07;;;3.70;;
19566;SDS011;9930;49.240;8.548;2023-04-03T05:16:09;2.80;;;2.50;;
19566;SDS011;9930;49.240;8.548;2023-04-03T05:18:37;3.67;;;2.30;;
19566;SDS011;9930;49.240;8.548;2023-04-03T05:21:05;2.40;;;2.10;;
19566;SDS011;9930;49.240;8.548;2023-04-03T05:23:30;2.30;;;2.10;;
19566;SDS011;9930;49.240;8.548;2023-04-03T05:25:59;2.30;;;2.07;;
19566;SDS011;9930;49.240;8.548;2023-04-03T05:28:28;1.93;;;1.80;;
19566;SDS011;9930;49.240;8.548;2023-04-03T05:30:57;2.00;;;1.80;;
19566;SDS011;9930;49.240;8.548;2023-04-03T05:33:24;2.20;;;2.00;;
19566;SDS011;9930;49.240;8.548;2023-04-03T05:35:53;2.10;;;1.90;;
19566;SDS011;9930;49.240;8.548;2023-04-03T05:38:19;1.77;;;1.67;;
19566;SDS011;9930;49.240;8.548;2023-04-03T05:40:47;2.00;;;1.73;;
19566;SDS011;9930;49.240;8.548;2023-04-03T05:43:13;2.53;;;1.70;;
19566;SDS011;9930;49.240;8.548;2023-04-03T05:45:42;2.40;;;2.20;;
19566;SDS011;9930;49.240;8.548;2023-04-03T05:48:12;3.40;;;1.90;;
19566;SDS011;9930;49.240;8.548;2023-04-03T05:50:37;2.03;;;1.90;;
19566;SDS011;9930;49.240;8.548;2023-04-03T05:53:07;2.07;;;1.90;;
19566;SDS011;9930;49.240;8.548;2023-04-03T05:55:45;2.93;;;1.90;;
19566;SDS011;9930;49.240;8.548;2023-04-03T05:58:14;2.10;;;1.90;;
19566;SDS011;9930;49.240;8.548;2023-04-03T06:00:40;2.40;;;2.20;;
19566;SDS011;9930;49.240;8.548;2023-04-03T06:03:05;3.15;;;2.15;;
19566;SDS011;9930;49.240;8.548;2023-04-03T06:05:36;2.70;;;2.20;;
19566;SDS011;9930;49.240;8.548;2023-04-03T06:08:05;2.23;;;1.67;;
19566;SDS011;9930;49.240;8.548;2023-04-03T06:10:30;2.33;;;1.83;;
19566;SDS011;9930;49.240;8.548;2023-04-03T06:12:57;2.00;;;1.60;;
19566;SDS011;9930;49.240;8.548;2023-04-03T06:15:28;1.90;;;1.80;;
19566;SDS011;9930;49.240;8.548;2023-04-03T06:17:54;2.20;;;1.73;;
19566;SDS011;9930;49.240;8.548;2023-04-03T06:20:20;2.03;;;1.83;;
19566;SDS011;9930;49.240;8.548;2023-04-03T06:22:48;1.83;;;1.60;;
19566;SDS011;9930;49.240;8.548;2023-04-03T06:25:15;1.70;;;1.60;;
19566;SDS011;9930;49.240;8.548;2023-04-03T06:27:43;1.80;;;1.70;;
19566;SDS011;9930;49.240;8.548;2023-04-03T06:30:10;3.05;;;1.70;;
19566;SDS011;9930;49.240;8.548;2023-04-03T06:32:41;2.53;;;1.85;;
19566;SDS011;9930;49.240;8.548;2023-04-03T06:35:08;2.30;;;2.10;;
19566;SDS011;9930;49.240;8.548;2023-04-03T06:37:34;2.03;;;1.92;;
19566;SDS011;9930;49.240;8.548;2023-04-03T06:40:06;2.92;;;2.50;;
19566;SDS011;9930;49.240;8.548;2023-04-03T06:42:35;2.28;;;2.08;;
19566;SDS011;9930;49.240;8.548;2023-04-03T06:45:01;2.00;;;1.83;;
19566;SDS011;9930;49.240;8.548;2023-04-03T06:47:30;2.10;;;1.90;;
19566;SDS011;9930;49.240;8.548;2023-04-03T06:49:55;1.90;;;1.80;;
19566;SDS011;9930;49.240;8.548;2023-04-03T06:52:23;2.17;;;1.98;;
19566;SDS011;9930;49.240;8.548;2023-04-03T06:54:49;2.20;;;1.98;;
19566;SDS011;9930;49.240;8.548;2023-04-03T06:57:22;4.97;;;3.40;;
19566;SDS011;9930;49.240;8.548;2023-04-03T06:59:47;4.32;;;3.08;;
19566;SDS011;9930;49.240;8.548;2023-04-03T07:02:13;3.20;;;2.90;;
19566;SDS011;9930;49.240;8.548;2023-04-03T07:04:41;4.45;;;3.05;;
19566;SDS011;9930;49.240;8.548;2023-04-03T07:07:11;3.05;;;2.72;;
19566;SDS011;9930;49.240;8.548;2023-04-03T07:09:37;2.58;;;2.38;;
19566;SDS011;9930;49.240;8.548;2023-04-03T07:12:03;3.72;;;2.78;;
19566;SDS011;9930;49.240;8.548;2023-04-03T07:14:28;2.90;;;2.50;;
19566;SDS011;9930;49.240;8.548;2023-04-03T07:16:56;2.95;;;2.40;;
19566;SDS011;9930;49.240;8.548;2023-04-03T07:19:22;2.78;;;2.15;;
19566;SDS011;9930;49.240;8.548;2023-04-03T07:21:52;2.97;;;2.28;;
19566;SDS011;9930;49.240;8.548;2023-04-03T07:24:19;3.45;;;2.47;;
19566;SDS011;9930;49.240;8.548;2023-04-03T07:26:48;2.70;;;2.20;;
19566;SDS011;9930;49.240;8.548;2023-04-03T07:29:15;2.35;;;2.00;;
19566;SDS011;9930;49.240;8.548;2023-04-03T07:31:41;2.22;;;1.92;;
19566;SDS011;9930;49.240;8.548;2023-04-03T07:34:10;3.67;;;2.40;;
19566;SDS011;9930;49.240;8.548;2023-04-03T07:36:36;4.82;;;2.75;;
19566;SDS011;9930;49.240;8.548;2023-04-03T07:39:03;2.60;;;2.13;;
19566;SDS011;9930;49.240;8.548;2023-04-03T07:41:32;3.28;;;2.10;;
19566;SDS011;9930;49.240;8.548;2023-04-03T07:43:58;2.30;;;2.10;;
19566;SDS011;9930;49.240;8.548;2023-04-03T07:46:26;3.40;;;2.50;;
19566;SDS011;9930;49.240;8.548;2023-04-03T07:48:51;3.17;;;2.17;;
19566;SDS011;9930;49.240;8.548;2023-04-03T07:51:17;3.25;;;2.25;;
19566;SDS011;9930;49.240;8.548;2023-04-03T07:53:43;2.47;;;2.10;;
19566;SDS011;9930;49.240;8.548;2023-04-03T07:56:11;3.15;;;2.08;;
19566;SDS011;9930;49.240;8.548;2023-04-03T07:58:37;2.10;;;1.90;;
19566;SDS011;9930;49.240;8.548;2023-04-03T08:01:03;2.33;;;2.13;;
19566;SDS011;9930;49.240;8.548;2023-04-03T08:03:31;2.97;;;2.05;;
19566;SDS011;9930;49.240;8.548;2023-04-03T08:06:04;2.38;;;2.03;;
19566;SDS011;9930;49.240;8.548;2023-04-03T08:08:39;3.30;;;2.00;;
19566;SDS011;9930;49.240;8.548;2023-04-03T08:11:10;2.20;;;1.65;;
19566;SDS011;9930;49.240;8.548;2023-04-03T08:13:36;2.67;;;2.17;;
19566;SDS011;9930;49.240;8.548;2023-04-03T08:16:12;3.63;;;2.10;;
19566;SDS011;9930;49.240;8.548;2023-04-03T08:18:48;2.35;;;1.80;;
19566;SDS011;9930;49.240;8.548;2023-04-03T08:21:14;2.65;;;2.05;;
19566;SDS011;9930;49.240;8.548;2023-04-03T08:23:40;3.47;;;1.80;;
19566;SDS011;9930;49.240;8.548;2023-04-03T08:26:09;2.55;;;1.98;;
19566;SDS011;9930;49.240;8.548;2023-04-03T08:28:38;3.05;;;1.83;;
19566;SDS011;9930;49.240;8.548;2023-04-03T08:31:07;2.78;;;1.80;;
19566;SDS011;9930;49.240;8.548;2023-04-03T08:33:42;2.75;;;1.90;;
19566;SDS011;9930;49.240;8.548;2023-04-03T08:36:15;2.85;;;2.10;;
19566;SDS011;9930;49.240;8.548;2023-04-03T08:38:46;2.13;;;1.80;;
19566;SDS011;9930;49.240;8.548;2023-04-03T08:49:53;2.58;;;1.98;;
19566;SDS011;9930;49.240;8.548;2023-04-03T08:52:36;2.28;;;1.88;;
19566;SDS011;9930;49.240;8.548;2023-04-03T08:58:19;2.60;;;1.90;;
19566;SDS011;9930;49.240;8.548;2023-04-03T09:01:04;2.30;;;1.70;;
19566;SDS011;9930;49.240;8.548;2023-04-03T09:03:43;2.70;;;1.80;;
19566;SDS011;9930;49.240;8.548;2023-04-03T09:08:51;2.22;;;1.55;;
19566;SDS011;9930;49.240;8.548;2023-04-03T09:11:50;1.52;;;1.42;;
19566;SDS011;9930;49.240;8.548;2023-04-03T09:17:49;1.95;;;1.50;;
19566;SDS011;9930;49.240;8.548;2023-04-03T09:20:29;1.60;;;1.45;;
19566;SDS011;9930;49.240;8.548;2023-04-03T09:23:12;3.00;;;1.70;;
19566;SDS011;9930;49.240;8.548;2023-04-03T09:25:51;1.60;;;1.50;;
19566;SDS011;9930;49.240;8.548;2023-04-03T09:28:25;1.35;;;1.25;;
19566;SDS011;9930;49.240;8.548;2023-04-03T09:30:52;1.60;;;1.50;;
19566;SDS011;9930;49.240;8.548;2023-04-03T09:33:18;2.60;;;1.40;;
19566;SDS011;9930;49.240;8.548;2023-04-03T09:35:46;3.08;;;1.58;;
19566;SDS011;9930;49.240;8.548;2023-04-03T09:38:17;2.00;;;1.40;;
19566;SDS011;9930;49.240;8.548;2023-04-03T09:40:50;2.58;;;1.55;;
19566;SDS011;9930;49.240;8.548;2023-04-03T09:43:40;2.00;;;1.38;;
19566;SDS011;9930;49.240;8.548;2023-04-03T09:48:56;1.95;;;1.38;;
19566;SDS011;9930;49.240;8.548;2023-04-03T09:51:26;2.63;;;1.48;;
19566;SDS011;9930;49.240;8.548;2023-04-03T09:53:56;2.00;;;1.55;;
19566;SDS011;9930;49.240;8.548;2023-04-03T09:56:24;2.10;;;1.42;;
19566;SDS011;9930;49.240;8.548;2023-04-03T10:01:30;2.63;;;1.48;;
19566;SDS011;9930;49.240;8.548;2023-04-03T10:04:12;1.45;;;1.33;;
19566;SDS011;9930;49.240;8.548;2023-04-03T10:06:43;1.73;;;1.42;;
19566;SDS011;9930;49.240;8.548;2023-04-03T10:11:57;1.45;;;1.35;;
19566;SDS011;9930;49.240;8.548;2023-04-03T10:14:38;1.55;;;1.30;;
19566;SDS011;9930;49.240;8.548;2023-04-03T10:20:26;1.85;;;1.58;;
19566;SDS011;9930;49.240;8.548;2023-04-03T10:23:21;1.40;;;1.30;;
19566;SDS011;9930;49.240;8.548;2023-04-03T10:26:04;2.10;;;1.40;;
19566;SDS011;9930;49.240;8.548;2023-04-03T10:39:54;1.30;;;1.20;;
19566;SDS011;9930;49.240;8.548;2023-04-03T10:56:40;1.92;;;1.38;;
19566;SDS011;9930;49.240;8.548;2023-04-03T10:59:16;1.73;;;1.30;;
19566;SDS011;9930;49.240;8.548;2023-04-03T11:01:55;1.77;;;1.48;;
19566;SDS011;9930;49.240;8.548;2023-04-03T11:04:29;1.30;;;1.20;;
19566;SDS011;9930;49.240;8.548;2023-04-03T11:09:37;1.30;;;1.20;;
19566;SDS011;9930;49.240;8.548;2023-04-03T11:15:26;1.73;;;1.30;;
19566;SDS011;9930;49.240;8.548;2023-04-03T11:18:00;1.42;;;1.30;;
19566;SDS011;9930;49.240;8.548;2023-04-03T11:20:43;1.65;;;1.35;;
19566;SDS011;9930;49.240;8.548;2023-04-03T11:23:39;2.00;;;1.35;;
19566;SDS011;9930;49.240;8.548;2023-04-03T11:26:12;1.83;;;1.40;;
19566;SDS011;9930;49.240;8.548;2023-04-03T11:28:46;2.15;;;1.40;;
19566;SDS011;9930;49.240;8.548;2023-04-03T11:31:32;1.40;;;1.30;;
19566;SDS011;9930;49.240;8.548;2023-04-03T11:34:39;2.10;;;1.50;;
19566;SDS011;9930;49.240;8.548;2023-04-03T11:37:21;2.15;;;1.50;;
19566;SDS011;9930;49.240;8.548;2023-04-03T11:40:07;1.20;;;1.10;;
19566;SDS011;9930;49.240;8.548;2023-04-03T11:42:40;1.63;;;1.40;;
19566;SDS011;9930;49.240;8.548;2023-04-03T11:45:26;2.22;;;1.52;;
19566;SDS011;9930;49.240;8.548;2023-04-03T11:48:00;1.80;;;1.40;;
19566;SDS011;9930;49.240;8.548;2023-04-03T11:58:19;1.70;;;1.33;;
19566;SDS011;9930;49.240;8.548;2023-04-03T12:00:55;1.45;;;1.27;;
19566;SDS011;9930;49.240;8.548;2023-04-03T12:05:51;2.17;;;1.45;;
19566;SDS011;9930;49.240;8.548;2023-04-03T12:13:40;1.88;;;1.67;;
19566;SDS011;9930;49.240;8.548;2023-04-03T12:16:25;1.92;;;1.48;;
19566;SDS011;9930;49.240;8.548;2023-04-03T12:19:02;2.95;;;1.70;;
19566;SDS011;9930;49.240;8.548;2023-04-03T12:49:58;1.88;;;1.50;;
19566;SDS011;9930;49.240;8.548;2023-04-03T12:55:17;2.90;;;1.92;;
19566;SDS011;9930;49.240;8.548;2023-04-03T12:57:45;2.80;;;1.80;;
19566;SDS011;9930;49.240;8.548;2023-04-03T13:00:29;2.17;;;1.80;;
19566;SDS011;9930;49.240;8.548;2023-04-03T13:03:04;1.95;;;1.60;;
19566;SDS011;9930;49.240;8.548;2023-04-03T13:05:44;1.98;;;1.38;;
19566;SDS011;9930;49.240;8.548;2023-04-03T13:08:12;1.70;;;1.40;;
19566;SDS011;9930;49.240;8.548;2023-04-03T13:13:37;1.60;;;1.50;;
19566;SDS011;9930;49.240;8.548;2023-04-03T13:16:08;2.15;;;1.58;;
19566;SDS011;9930;49.240;8.548;2023-04-03T13:18:36;3.63;;;1.55;;
19566;SDS011;9930;49.240;8.548;2023-04-03T13:21:45;2.20;;;1.50;;
19566;SDS011;9930;49.240;8.548;2023-04-03T13:23:57;2.60;;;1.60;;
19566;SDS011;9930;49.240;8.548;2023-04-03T13:26:29;3.05;;;1.50;;
19566;SDS011;9930;49.240;8.548;2023-04-03T13:29:00;1.98;;;1.70;;
19566;SDS011;9930;49.240;8.548;2023-04-03T13:31:33;1.98;;;1.80;;
19566;SDS011;9930;49.240;8.548;2023-04-03T13:34:05;1.92;;;1.70;;
19566;SDS011;9930;49.240;8.548;2023-04-03T13:36:38;1.90;;;1.50;;
19566;SDS011;9930;49.240;8.548;2023-04-03T13:41:41;2.55;;;1.63;;
19566;SDS011;9930;49.240;8.548;2023-04-03T13:46:47;2.30;;;1.60;;
19566;SDS011;9930;49.240;8.548;2023-04-03T13:54:56;1.75;;;1.50;;
19566;SDS011;9930;49.240;8.548;2023-04-03T13:57:28;2.03;;;1.60;;
19566;SDS011;9930;49.240;8.548;2023-04-03T13:59:59;1.92;;;1.60;;
19566;SDS011;9930;49.240;8.548;2023-04-03T14:02:32;2.53;;;2.10;;
19566;SDS011;9930;49.240;8.548;2023-04-03T14:05:04;1.92;;;1.73;;
19566;SDS011;9930;49.240;8.548;2023-04-03T14:07:33;2.03;;;1.70;;
19566;SDS011;9930;49.240;8.548;2023-04-03T14:10:01;1.98;;;1.65;;
19566;SDS011;9930;49.240;8.548;2023-04-03T14:12:31;1.67;;;1.50;;
19566;SDS011;9930;49.240;8.548;2023-04-03T14:15:17;2.30;;;2.10;;
19566;SDS011;9930;49.240;8.548;2023-04-03T14:17:49;2.42;;;1.88;;
19566;SDS011;9930;49.240;8.548;2023-04-03T14:20:17;2.25;;;1.70;;
19566;SDS011;9930;49.240;8.548;2023-04-03T14:22:46;2.25;;;1.77;;
19566;SDS011;9930;49.240;8.548;2023-04-03T14:25:18;1.90;;;1.75;;
19566;SDS011;9930;49.240;8.548;2023-04-03T14:27:51;2.15;;;1.80;;
19566;SDS011;9930;49.240;8.548;2023-04-03T14:30:22;2.85;;;2.00;;
19566;SDS011;9930;49.240;8.548;2023-04-03T14:32:57;2.15;;;1.65;;
19566;SDS011;9930;49.240;8.548;2023-04-03T14:35:27;1.70;;;1.52;;
19566;SDS011;9930;49.240;8.548;2023-04-03T14:37:56;2.78;;;1.90;;
19566;SDS011;9930;49.240;8.548;2023-04-03T14:40:23;2.60;;;1.77;;
19566;SDS011;9930;49.240;8.548;2023-04-03T14:42:52;1.80;;;1.70;;
19566;SDS011;9930;49.240;8.548;2023-04-03T14:45:20;1.65;;;1.55;;
19566;SDS011;9930;49.240;8.548;2023-04-03T14:47:52;1.60;;;1.50;;
19566;SDS011;9930;49.240;8.548;2023-04-03T14:50:21;1.80;;;1.70;;
19566;SDS011;9930;49.240;8.548;2023-04-03T14:52:51;1.88;;;1.60;;
19566;SDS011;9930;49.240;8.548;2023-04-03T14:55:20;2.83;;;1.70;;
19566;SDS011;9930;49.240;8.548;2023-04-03T14:57:50;2.33;;;1.92;;
19566;SDS011;9930;49.240;8.548;2023-04-03T15:00:23;4.50;;;2.22;;
19566;SDS011;9930;49.240;8.548;2023-04-03T15:02:49;1.70;;;1.60;;
19566;SDS011;9930;49.240;8.548;2023-04-03T15:05:15;2.33;;;1.45;;
19566;SDS011;9930;49.240;8.548;2023-04-03T15:07:52;2.28;;;1.70;;
19566;SDS011;9930;49.240;8.548;2023-04-03T15:12:50;1.70;;;1.50;;
19566;SDS011;9930;49.240;8.548;2023-04-03T15:15:20;1.80;;;1.70;;
19566;SDS011;9930;49.240;8.548;2023-04-03T15:17:51;3.47;;;2.28;;
19566;SDS011;9930;49.240;8.548;2023-04-03T15:20:22;2.67;;;2.00;;
19566;SDS011;9930;49.240;8.548;2023-04-03T15:22:51;2.30;;;1.60;;
19566;SDS011;9930;49.240;8.548;2023-04-03T15:25:17;1.90;;;1.80;;
19566;SDS011;9930;49.240;8.548;2023-04-03T15:27:43;1.98;;;1.60;;
19566;SDS011;9930;49.240;8.548;2023-04-03T15:30:15;1.58;;;1.45;;
19566;SDS011;9930;49.240;8.548;2023-04-03T15:32:46;1.92;;;1.70;;
19566;SDS011;9930;49.240;8.548;2023-04-03T15:35:15;2.88;;;2.15;;
19566;SDS011;9930;49.240;8.548;2023-04-03T15:37:41;2.45;;;2.00;;
19566;SDS011;9930;49.240;8.548;2023-04-03T15:40:07;2.00;;;1.80;;
19566;SDS011;9930;49.240;8.548;2023-04-03T15:42:36;2.13;;;1.92;;
19566;SDS011;9930;49.240;8.548;2023-04-03T15:45:06;2.55;;;1.92;;
19566;SDS011;9930;49.240;8.548;2023-04-03T15:47:33;2.20;;;1.80;;
19566;SDS011;9930;49.240;8.548;2023-04-03T15:49:59;2.05;;;1.83;;
19566;SDS011;9930;49.240;8.548;2023-04-03T15:52:25;1.60;;;1.50;;
19566;SDS011;9930;49.240;8.548;2023-04-03T15:54:53;2.10;;;1.83;;
19566;SDS011;9930;49.240;8.548;2023-04-03T15:57:18;2.42;;;2.03;;
19566;SDS011;9930;49.240;8.548;2023-04-03T15:59:44;1.83;;;1.73;;
19566;SDS011;9930;49.240;8.548;2023-04-03T16:02:10;1.80;;;1.70;;
19566;SDS011;9930;49.240;8.548;2023-04-03T16:04:40;2.92;;;1.92;;
19566;SDS011;9930;49.240;8.548;2023-04-03T16:07:06;2.30;;;1.92;;
19566;SDS011;9930;49.240;8.548;2023-04-03T16:09:34;2.97;;;2.28;;
19566;SDS011;9930;49.240;8.548;2023-04-03T16:12:04;3.03;;;2.38;;
19566;SDS011;9930;49.240;8.548;2023-04-03T16:14:33;2.63;;;2.20;;
19566;SDS011;9930;49.240;8.548;2023-04-03T16:16:58;2.20;;;2.00;;
19566;SDS011;9930;49.240;8.548;2023-04-03T16:19:29;3.55;;;2.88;;
19566;SDS011;9930;49.240;8.548;2023-04-03T16:21:55;2.45;;;2.17;;
19566;SDS011;9930;49.240;8.548;2023-04-03T16:24:23;2.25;;;1.98;;
19566;SDS011;9930;49.240;8.548;2023-04-03T16:26:49;2.63;;;2.22;;
19566;SDS011;9930;49.240;8.548;2023-04-03T16:29:15;1.90;;;1.70;;
19566;SDS011;9930;49.240;8.548;2023-04-03T16:31:41;2.00;;;1.67;;
19566;SDS011;9930;49.240;8.548;2023-04-03T16:34:07;1.95;;;1.75;;
19566;SDS011;9930;49.240;8.548;2023-04-03T16:36:32;2.38;;;2.08;;
19566;SDS011;9930;49.240;8.548;2023-04-03T16:39:01;1.73;;;1.63;;
19566;SDS011;9930;49.240;8.548;2023-04-03T16:41:27;2.05;;;1.73;;
19566;SDS011;9930;49.240;8.548;2023-04-03T16:43:57;2.13;;;1.50;;
19566;SDS011;9930;49.240;8.548;2023-04-03T16:46:22;2.75;;;1.80;;
19566;SDS011;9930;49.240;8.548;2023-04-03T16:48:50;1.70;;;1.60;;
19566;SDS011;9930;49.240;8.548;2023-04-03T16:51:16;1.80;;;1.70;;
19566;SDS011;9930;49.240;8.548;2023-04-03T16:53:42;2.03;;;1.67;;
19566;SDS011;9930;49.240;8.548;2023-04-03T16:56:08;1.70;;;1.60;;
19566;SDS011;9930;49.240;8.548;2023-04-03T16:58:33;1.60;;;1.50;;
19566;SDS011;9930;49.240;8.548;2023-04-03T17:01:09;1.60;;;1.50;;
19566;SDS011;9930;49.240;8.548;2023-04-03T17:03:41;1.60;;;1.50;;
19566;SDS011;9930;49.240;8.548;2023-04-03T17:06:07;1.75;;;1.60;;
19566;SDS011;9930;49.240;8.548;2023-04-03T17:08:40;1.60;;;1.50;;
19566;SDS011;9930;49.240;8.548;2023-04-03T17:11:12;2.20;;;1.88;;
19566;SDS011;9930;49.240;8.548;2023-04-03T17:13:42;1.80;;;1.70;;
19566;SDS011;9930;49.240;8.548;2023-04-03T17:16:12;1.70;;;1.58;;
19566;SDS011;9930;49.240;8.548;2023-04-03T17:18:40;2.25;;;2.03;;
19566;SDS011;9930;49.240;8.548;2023-04-03T17:21:07;1.88;;;1.75;;
19566;SDS011;9930;49.240;8.548;2023-04-03T17:23:39;1.83;;;1.50;;
19566;SDS011;9930;49.240;8.548;2023-04-03T17:26:16;1.55;;;1.42;;